South Park Village, Washington
Current Conditions -  °F | °C
As of 1:35 AM on Thursday 27 Nov 2014 (Local Time) from KPWT Reporting Station
Overcast Overcast  
Wind Chill: 52°   Ceiling: 2400
Heat Index: 52°   Visibility: 8mi
Dew Point: 50°   Wind: 21mph
Humidity: 94%   Direction: 180°S
Pressure: 29.88"   Gusts: 25mph
Location:  47.5378°N, 122.589°W
Report Text: KPWT 270935Z AUTO 18018G22KT 8SM OVC024 11/10 A2988 RMK AO1 P0004
Loading
Personal Weather Stations






























Interactive Weather Map New forecast layout! Learn more

10-Day Weather Forecast

Advertisements
Track Severe Weather on mobile